sensor_id;sensor_type;location;lat;lon;timestamp;P1;durP1;ratioP1;P2;durP2;ratioP2
72301;SDS011;60235;52.234;5.186;2022-07-29T00:00:53;5.60;;;1.30;;
72301;SDS011;60235;52.234;5.186;2022-07-29T00:03:19;3.72;;;1.23;;
72301;SDS011;60235;52.234;5.186;2022-07-29T00:05:45;5.85;;;1.17;;
72301;SDS011;60235;52.234;5.186;2022-07-29T00:08:11;6.13;;;1.30;;
72301;SDS011;60235;52.234;5.186;2022-07-29T00:10:37;4.72;;;1.25;;
72301;SDS011;60235;52.234;5.186;2022-07-29T00:13:03;5.50;;;1.20;;
72301;SDS011;60235;52.234;5.186;2022-07-29T00:15:29;3.95;;;1.00;;
72301;SDS011;60235;52.234;5.186;2022-07-29T00:17:55;6.75;;;1.30;;
72301;SDS011;60235;52.234;5.186;2022-07-29T00:20:22;7.18;;;1.73;;
72301;SDS011;60235;52.234;5.186;2022-07-29T00:22:48;8.10;;;1.30;;
72301;SDS011;60235;52.234;5.186;2022-07-29T00:25:14;5.57;;;1.17;;
72301;SDS011;60235;52.234;5.186;2022-07-29T00:27:40;7.15;;;1.38;;
72301;SDS011;60235;52.234;5.186;2022-07-29T00:30:07;4.95;;;1.30;;
72301;SDS011;60235;52.234;5.186;2022-07-29T00:32:33;7.30;;;1.25;;
72301;SDS011;60235;52.234;5.186;2022-07-29T00:34:59;8.15;;;1.33;;
72301;SDS011;60235;52.234;5.186;2022-07-29T00:37:44;7.47;;;2.67;;
72301;SDS011;60235;52.234;5.186;2022-07-29T00:40:10;11.60;;;1.40;;
72301;SDS011;60235;52.234;5.186;2022-07-29T00:42:43;8.95;;;1.30;;
72301;SDS011;60235;52.234;5.186;2022-07-29T00:45:09;5.40;;;1.40;;
72301;SDS011;60235;52.234;5.186;2022-07-29T00:47:35;5.78;;;1.30;;
72301;SDS011;60235;52.234;5.186;2022-07-29T00:50:01;6.18;;;1.45;;
72301;SDS011;60235;52.234;5.186;2022-07-29T00:52:27;6.35;;;1.20;;
72301;SDS011;60235;52.234;5.186;2022-07-29T00:54:53;5.03;;;1.38;;
72301;SDS011;60235;52.234;5.186;2022-07-29T00:57:19;4.30;;;1.30;;
72301;SDS011;60235;52.234;5.186;2022-07-29T00:59:45;5.95;;;1.35;;
72301;SDS011;60235;52.234;5.186;2022-07-29T01:02:11;4.97;;;1.20;;
72301;SDS011;60235;52.234;5.186;2022-07-29T01:04:37;6.13;;;1.58;;
72301;SDS011;60235;52.234;5.186;2022-07-29T01:07:04;6.07;;;1.33;;
72301;SDS011;60235;52.234;5.186;2022-07-29T01:09:31;5.63;;;1.30;;
72301;SDS011;60235;52.234;5.186;2022-07-29T01:11:57;7.43;;;1.40;;
72301;SDS011;60235;52.234;5.186;2022-07-29T01:14:24;5.90;;;1.30;;
72301;SDS011;60235;52.234;5.186;2022-07-29T01:17:13;5.32;;;1.25;;
72301;SDS011;60235;52.234;5.186;2022-07-29T01:30:13;7.85;;;1.50;;
72301;SDS011;60235;52.234;5.186;2022-07-29T01:32:39;4.80;;;1.48;;
72301;SDS011;60235;52.234;5.186;2022-07-29T01:35:10;6.85;;;1.50;;
72301;SDS011;60235;52.234;5.186;2022-07-29T01:40:09;4.80;;;1.23;;
72301;SDS011;60235;52.234;5.186;2022-07-29T01:42:43;7.75;;;1.60;;
72301;SDS011;60235;52.234;5.186;2022-07-29T01:50:20;4.90;;;1.58;;
72301;SDS011;60235;52.234;5.186;2022-07-29T01:55:15;4.85;;;1.60;;
72301;SDS011;60235;52.234;5.186;2022-07-29T01:57:43;8.55;;;1.75;;
72301;SDS011;60235;52.234;5.186;2022-07-29T02:00:10;5.68;;;1.73;;
72301;SDS011;60235;52.234;5.186;2022-07-29T02:02:37;8.57;;;1.60;;
72301;SDS011;60235;52.234;5.186;2022-07-29T02:05:03;8.95;;;1.63;;
72301;SDS011;60235;52.234;5.186;2022-07-29T02:07:31;6.97;;;1.70;;
72301;SDS011;60235;52.234;5.186;2022-07-29T02:09:58;4.45;;;1.58;;
72301;SDS011;60235;52.234;5.186;2022-07-29T02:12:25;5.10;;;1.67;;
72301;SDS011;60235;52.234;5.186;2022-07-29T02:14:52;6.10;;;1.58;;
72301;SDS011;60235;52.234;5.186;2022-07-29T02:17:23;7.75;;;1.65;;
72301;SDS011;60235;52.234;5.186;2022-07-29T02:19:50;5.18;;;1.67;;
72301;SDS011;60235;52.234;5.186;2022-07-29T02:22:17;9.45;;;1.85;;
72301;SDS011;60235;52.234;5.186;2022-07-29T02:24:44;8.02;;;1.50;;
72301;SDS011;60235;52.234;5.186;2022-07-29T02:27:10;5.70;;;1.70;;
72301;SDS011;60235;52.234;5.186;2022-07-29T02:29:37;7.45;;;1.90;;
72301;SDS011;60235;52.234;5.186;2022-07-29T02:32:05;6.75;;;1.83;;
72301;SDS011;60235;52.234;5.186;2022-07-29T02:34:33;6.55;;;1.73;;
72301;SDS011;60235;52.234;5.186;2022-07-29T02:37:01;4.95;;;1.65;;
72301;SDS011;60235;52.234;5.186;2022-07-29T02:39:28;6.13;;;1.42;;
72301;SDS011;60235;52.234;5.186;2022-07-29T02:41:57;7.18;;;1.60;;
72301;SDS011;60235;52.234;5.186;2022-07-29T02:44:25;5.47;;;1.60;;
72301;SDS011;60235;52.234;5.186;2022-07-29T02:52:03;5.75;;;1.45;;
72301;SDS011;60235;52.234;5.186;2022-07-29T02:54:51;5.88;;;1.63;;
72301;SDS011;60235;52.234;5.186;2022-07-29T02:57:19;6.38;;;1.75;;
72301;SDS011;60235;52.234;5.186;2022-07-29T02:59:46;5.90;;;1.60;;
72301;SDS011;60235;52.234;5.186;2022-07-29T03:02:13;5.53;;;1.60;;
72301;SDS011;60235;52.234;5.186;2022-07-29T03:04:40;5.63;;;1.60;;
72301;SDS011;60235;52.234;5.186;2022-07-29T03:07:07;7.93;;;1.70;;
72301;SDS011;60235;52.234;5.186;2022-07-29T03:09:34;5.03;;;1.50;;
72301;SDS011;60235;52.234;5.186;2022-07-29T03:12:01;6.38;;;1.90;;
72301;SDS011;60235;52.234;5.186;2022-07-29T03:14:28;5.45;;;1.55;;
72301;SDS011;60235;52.234;5.186;2022-07-29T03:16:54;8.32;;;1.98;;
72301;SDS011;60235;52.234;5.186;2022-07-29T03:19:20;6.65;;;1.70;;
72301;SDS011;60235;52.234;5.186;2022-07-29T03:21:46;4.90;;;1.73;;
72301;SDS011;60235;52.234;5.186;2022-07-29T03:24:29;7.88;;;1.45;;
72301;SDS011;60235;52.234;5.186;2022-07-29T03:26:55;6.97;;;1.60;;
72301;SDS011;60235;52.234;5.186;2022-07-29T03:29:21;8.25;;;1.70;;
72301;SDS011;60235;52.234;5.186;2022-07-29T03:31:48;7.82;;;1.60;;
72301;SDS011;60235;52.234;5.186;2022-07-29T03:34:14;5.68;;;1.45;;
72301;SDS011;60235;52.234;5.186;2022-07-29T03:36:40;6.13;;;1.63;;
72301;SDS011;60235;52.234;5.186;2022-07-29T03:39:05;6.68;;;1.60;;
72301;SDS011;60235;52.234;5.186;2022-07-29T03:41:32;5.40;;;1.70;;
72301;SDS011;60235;52.234;5.186;2022-07-29T03:43:59;6.93;;;1.60;;
72301;SDS011;60235;52.234;5.186;2022-07-29T03:46:25;5.15;;;1.40;;
72301;SDS011;60235;52.234;5.186;2022-07-29T03:48:52;8.32;;;1.73;;
72301;SDS011;60235;52.234;5.186;2022-07-29T03:53:46;8.05;;;2.08;;
72301;SDS011;60235;52.234;5.186;2022-07-29T03:56:14;6.72;;;1.80;;
72301;SDS011;60235;52.234;5.186;2022-07-29T03:58:41;6.25;;;1.60;;
72301;SDS011;60235;52.234;5.186;2022-07-29T04:01:07;7.43;;;1.70;;
72301;SDS011;60235;52.234;5.186;2022-07-29T04:03:34;5.07;;;1.60;;
72301;SDS011;60235;52.234;5.186;2022-07-29T04:06:04;7.95;;;1.60;;
72301;SDS011;60235;52.234;5.186;2022-07-29T04:08:33;5.32;;;1.60;;
72301;SDS011;60235;52.234;5.186;2022-07-29T04:11:00;6.60;;;1.80;;
72301;SDS011;60235;52.234;5.186;2022-07-29T04:13:26;5.82;;;1.73;;
72301;SDS011;60235;52.234;5.186;2022-07-29T04:15:53;5.30;;;1.90;;
72301;SDS011;60235;52.234;5.186;2022-07-29T04:18:19;6.45;;;1.88;;
72301;SDS011;60235;52.234;5.186;2022-07-29T04:20:45;7.88;;;1.83;;
72301;SDS011;60235;52.234;5.186;2022-07-29T04:23:11;6.38;;;1.55;;
72301;SDS011;60235;52.234;5.186;2022-07-29T04:25:37;8.05;;;2.00;;
72301;SDS011;60235;52.234;5.186;2022-07-29T04:28:04;8.93;;;1.80;;
72301;SDS011;60235;52.234;5.186;2022-07-29T04:30:30;6.45;;;1.70;;
72301;SDS011;60235;52.234;5.186;2022-07-29T04:32:56;5.57;;;1.85;;
72301;SDS011;60235;52.234;5.186;2022-07-29T04:35:22;5.95;;;1.70;;
72301;SDS011;60235;52.234;5.186;2022-07-29T04:37:48;8.43;;;2.28;;
72301;SDS011;60235;52.234;5.186;2022-07-29T04:40:14;4.60;;;1.50;;
72301;SDS011;60235;52.234;5.186;2022-07-29T04:42:40;5.78;;;1.60;;
72301;SDS011;60235;52.234;5.186;2022-07-29T04:45:06;7.82;;;1.30;;
72301;SDS011;60235;52.234;5.186;2022-07-29T04:47:32;5.95;;;1.73;;
72301;SDS011;60235;52.234;5.186;2022-07-29T04:49:58;8.55;;;2.00;;
72301;SDS011;60235;52.234;5.186;2022-07-29T04:52:24;4.95;;;1.58;;
72301;SDS011;60235;52.234;5.186;2022-07-29T04:54:50;11.13;;;1.70;;
72301;SDS011;60235;52.234;5.186;2022-07-29T04:57:16;4.47;;;1.52;;
72301;SDS011;60235;52.234;5.186;2022-07-29T04:59:42;6.40;;;1.80;;
72301;SDS011;60235;52.234;5.186;2022-07-29T05:02:08;6.03;;;1.60;;
72301;SDS011;60235;52.234;5.186;2022-07-29T05:04:35;6.15;;;2.40;;
72301;SDS011;60235;52.234;5.186;2022-07-29T05:07:01;4.82;;;1.55;;
72301;SDS011;60235;52.234;5.186;2022-07-29T05:09:27;5.22;;;1.60;;
72301;SDS011;60235;52.234;5.186;2022-07-29T05:11:53;7.65;;;1.73;;
72301;SDS011;60235;52.234;5.186;2022-07-29T05:14:19;5.25;;;1.60;;
72301;SDS011;60235;52.234;5.186;2022-07-29T05:16:45;4.88;;;1.55;;
72301;SDS011;60235;52.234;5.186;2022-07-29T05:19:11;8.05;;;1.90;;
72301;SDS011;60235;52.234;5.186;2022-07-29T05:21:37;8.95;;;1.67;;
72301;SDS011;60235;52.234;5.186;2022-07-29T05:24:03;10.93;;;2.78;;
72301;SDS011;60235;52.234;5.186;2022-07-29T05:26:29;6.85;;;1.73;;
72301;SDS011;60235;52.234;5.186;2022-07-29T05:28:55;4.57;;;1.40;;
72301;SDS011;60235;52.234;5.186;2022-07-29T05:31:22;5.72;;;1.45;;
72301;SDS011;60235;52.234;5.186;2022-07-29T05:33:48;7.15;;;1.90;;
72301;SDS011;60235;52.234;5.186;2022-07-29T05:36:13;5.30;;;1.58;;
72301;SDS011;60235;52.234;5.186;2022-07-29T05:38:39;5.57;;;1.67;;
72301;SDS011;60235;52.234;5.186;2022-07-29T05:41:05;5.95;;;1.50;;
72301;SDS011;60235;52.234;5.186;2022-07-29T05:43:32;5.03;;;1.73;;
72301;SDS011;60235;52.234;5.186;2022-07-29T05:45:58;5.60;;;1.50;;
72301;SDS011;60235;52.234;5.186;2022-07-29T05:48:24;6.80;;;2.00;;
72301;SDS011;60235;52.234;5.186;2022-07-29T05:50:50;5.95;;;1.60;;
72301;SDS011;60235;52.234;5.186;2022-07-29T05:53:16;6.47;;;1.48;;
72301;SDS011;60235;52.234;5.186;2022-07-29T05:55:42;7.30;;;1.70;;
72301;SDS011;60235;52.234;5.186;2022-07-29T05:58:08;6.05;;;1.83;;
72301;SDS011;60235;52.234;5.186;2022-07-29T06:00:34;5.60;;;1.70;;
72301;SDS011;60235;52.234;5.186;2022-07-29T06:03:00;6.88;;;1.98;;
72301;SDS011;60235;52.234;5.186;2022-07-29T06:05:26;7.22;;;1.80;;
72301;SDS011;60235;52.234;5.186;2022-07-29T06:07:52;5.75;;;1.98;;
72301;SDS011;60235;52.234;5.186;2022-07-29T06:10:18;6.45;;;2.08;;
72301;SDS011;60235;52.234;5.186;2022-07-29T06:12:44;7.65;;;1.90;;
72301;SDS011;60235;52.234;5.186;2022-07-29T06:15:10;5.90;;;1.70;;
72301;SDS011;60235;52.234;5.186;2022-07-29T06:17:36;8.27;;;2.05;;
72301;SDS011;60235;52.234;5.186;2022-07-29T06:20:02;6.63;;;1.90;;
72301;SDS011;60235;52.234;5.186;2022-07-29T06:22:28;6.03;;;1.70;;
72301;SDS011;60235;52.234;5.186;2022-07-29T06:24:55;5.78;;;1.83;;
72301;SDS011;60235;52.234;5.186;2022-07-29T06:27:21;7.05;;;2.55;;
72301;SDS011;60235;52.234;5.186;2022-07-29T06:29:47;7.80;;;2.25;;
72301;SDS011;60235;52.234;5.186;2022-07-29T06:32:13;7.85;;;2.13;;
72301;SDS011;60235;52.234;5.186;2022-07-29T06:34:39;7.70;;;2.17;;
72301;SDS011;60235;52.234;5.186;2022-07-29T06:37:05;6.68;;;1.88;;
72301;SDS011;60235;52.234;5.186;2022-07-29T06:39:33;7.05;;;1.90;;
72301;SDS011;60235;52.234;5.186;2022-07-29T06:41:59;5.43;;;1.60;;
72301;SDS011;60235;52.234;5.186;2022-07-29T06:44:25;6.35;;;1.65;;
72301;SDS011;60235;52.234;5.186;2022-07-29T06:46:51;7.75;;;2.03;;
72301;SDS011;60235;52.234;5.186;2022-07-29T06:49:18;6.80;;;1.55;;
72301;SDS011;60235;52.234;5.186;2022-07-29T06:51:44;7.65;;;2.10;;
72301;SDS011;60235;52.234;5.186;2022-07-29T06:54:10;6.55;;;1.95;;
72301;SDS011;60235;52.234;5.186;2022-07-29T06:56:36;6.55;;;1.60;;
72301;SDS011;60235;52.234;5.186;2022-07-29T06:59:02;8.10;;;2.03;;
72301;SDS011;60235;52.234;5.186;2022-07-29T07:01:29;5.20;;;2.05;;
72301;SDS011;60235;52.234;5.186;2022-07-29T07:03:55;4.90;;;1.67;;
72301;SDS011;60235;52.234;5.186;2022-07-29T07:06:21;7.97;;;2.00;;
72301;SDS011;60235;52.234;5.186;2022-07-29T07:08:47;6.35;;;2.10;;
72301;SDS011;60235;52.234;5.186;2022-07-29T07:11:13;6.20;;;1.88;;
72301;SDS011;60235;52.234;5.186;2022-07-29T07:13:39;7.70;;;2.00;;
72301;SDS011;60235;52.234;5.186;2022-07-29T07:16:05;8.73;;;2.40;;
72301;SDS011;60235;52.234;5.186;2022-07-29T07:18:31;7.55;;;2.20;;
72301;SDS011;60235;52.234;5.186;2022-07-29T07:20:57;7.25;;;1.92;;
72301;SDS011;60235;52.234;5.186;2022-07-29T07:23:23;5.28;;;2.03;;
72301;SDS011;60235;52.234;5.186;2022-07-29T07:25:49;7.35;;;2.50;;
72301;SDS011;60235;52.234;5.186;2022-07-29T07:28:16;7.93;;;2.30;;
72301;SDS011;60235;52.234;5.186;2022-07-29T07:30:42;6.45;;;2.20;;
72301;SDS011;60235;52.234;5.186;2022-07-29T07:33:08;7.82;;;2.15;;
72301;SDS011;60235;52.234;5.186;2022-07-29T07:35:34;8.95;;;2.03;;
72301;SDS011;60235;52.234;5.186;2022-07-29T07:38:00;6.50;;;2.13;;
72301;SDS011;60235;52.234;5.186;2022-07-29T07:40:26;8.05;;;2.08;;
72301;SDS011;60235;52.234;5.186;2022-07-29T07:42:52;8.07;;;2.30;;
72301;SDS011;60235;52.234;5.186;2022-07-29T07:45:18;6.70;;;2.35;;
72301;SDS011;60235;52.234;5.186;2022-07-29T07:47:44;6.63;;;2.25;;
72301;SDS011;60235;52.234;5.186;2022-07-29T07:50:11;7.15;;;2.40;;
72301;SDS011;60235;52.234;5.186;2022-07-29T07:52:47;6.38;;;2.22;;
72301;SDS011;60235;52.234;5.186;2022-07-29T07:55:13;5.97;;;2.45;;
72301;SDS011;60235;52.234;5.186;2022-07-29T07:57:39;7.38;;;2.10;;
72301;SDS011;60235;52.234;5.186;2022-07-29T08:00:05;6.88;;;2.25;;
72301;SDS011;60235;52.234;5.186;2022-07-29T08:02:32;6.45;;;2.20;;
72301;SDS011;60235;52.234;5.186;2022-07-29T08:04:58;8.98;;;2.55;;
72301;SDS011;60235;52.234;5.186;2022-07-29T08:07:24;6.75;;;2.15;;
72301;SDS011;60235;52.234;5.186;2022-07-29T08:09:50;5.65;;;2.15;;
72301;SDS011;60235;52.234;5.186;2022-07-29T08:12:16;10.13;;;2.40;;
72301;SDS011;60235;52.234;5.186;2022-07-29T08:14:42;7.47;;;2.28;;
72301;SDS011;60235;52.234;5.186;2022-07-29T08:17:08;8.43;;;2.45;;
72301;SDS011;60235;52.234;5.186;2022-07-29T08:19:34;8.50;;;2.40;;
72301;SDS011;60235;52.234;5.186;2022-07-29T08:22:02;6.50;;;2.47;;
72301;SDS011;60235;52.234;5.186;2022-07-29T08:24:28;10.55;;;2.35;;
72301;SDS011;60235;52.234;5.186;2022-07-29T08:27:11;6.55;;;2.10;;
72301;SDS011;60235;52.234;5.186;2022-07-29T08:29:37;6.57;;;1.98;;
72301;SDS011;60235;52.234;5.186;2022-07-29T08:32:03;7.45;;;2.83;;
72301;SDS011;60235;52.234;5.186;2022-07-29T08:34:30;7.43;;;2.10;;
72301;SDS011;60235;52.234;5.186;2022-07-29T08:36:56;6.85;;;2.30;;
72301;SDS011;60235;52.234;5.186;2022-07-29T08:39:23;9.90;;;2.25;;
72301;SDS011;60235;52.234;5.186;2022-07-29T08:41:49;11.32;;;2.17;;
72301;SDS011;60235;52.234;5.186;2022-07-29T08:44:18;10.70;;;2.10;;
72301;SDS011;60235;52.234;5.186;2022-07-29T08:46:46;8.60;;;2.17;;
72301;SDS011;60235;52.234;5.186;2022-07-29T08:49:12;10.98;;;2.28;;
72301;SDS011;60235;52.234;5.186;2022-07-29T08:51:39;4.93;;;2.00;;
72301;SDS011;60235;52.234;5.186;2022-07-29T08:54:05;5.57;;;1.70;;
72301;SDS011;60235;52.234;5.186;2022-07-29T08:56:31;6.78;;;2.05;;
72301;SDS011;60235;52.234;5.186;2022-07-29T08:58:58;9.45;;;1.73;;
72301;SDS011;60235;52.234;5.186;2022-07-29T09:01:25;9.25;;;2.13;;
72301;SDS011;60235;52.234;5.186;2022-07-29T09:03:56;6.82;;;1.85;;
72301;SDS011;60235;52.234;5.186;2022-07-29T09:06:22;6.75;;;1.75;;
72301;SDS011;60235;52.234;5.186;2022-07-29T09:08:52;8.48;;;2.03;;
72301;SDS011;60235;52.234;5.186;2022-07-29T09:11:18;6.25;;;1.83;;
72301;SDS011;60235;52.234;5.186;2022-07-29T09:13:44;7.43;;;1.90;;
72301;SDS011;60235;52.234;5.186;2022-07-29T09:16:11;7.00;;;2.05;;
72301;SDS011;60235;52.234;5.186;2022-07-29T09:18:41;10.63;;;2.03;;
72301;SDS011;60235;52.234;5.186;2022-07-29T09:21:08;8.65;;;2.25;;
72301;SDS011;60235;52.234;5.186;2022-07-29T09:24:12;8.23;;;2.22;;
72301;SDS011;60235;52.234;5.186;2022-07-29T09:26:41;6.18;;;1.80;;
72301;SDS011;60235;52.234;5.186;2022-07-29T09:29:17;5.28;;;2.00;;
72301;SDS011;60235;52.234;5.186;2022-07-29T09:31:44;7.60;;;2.10;;
72301;SDS011;60235;52.234;5.186;2022-07-29T09:34:11;11.07;;;2.65;;
72301;SDS011;60235;52.234;5.186;2022-07-29T09:36:41;6.95;;;2.08;;
72301;SDS011;60235;52.234;5.186;2022-07-29T09:39:07;9.15;;;2.08;;
72301;SDS011;60235;52.234;5.186;2022-07-29T09:41:49;7.05;;;2.05;;
72301;SDS011;60235;52.234;5.186;2022-07-29T09:44:17;7.78;;;2.13;;
72301;SDS011;60235;52.234;5.186;2022-07-29T09:47:00;9.57;;;2.13;;
72301;SDS011;60235;52.234;5.186;2022-07-29T09:49:35;8.13;;;2.08;;
72301;SDS011;60235;52.234;5.186;2022-07-29T09:52:08;7.82;;;1.90;;
72301;SDS011;60235;52.234;5.186;2022-07-29T09:54:36;7.65;;;2.13;;
72301;SDS011;60235;52.234;5.186;2022-07-29T09:57:03;9.60;;;2.08;;
72301;SDS011;60235;52.234;5.186;2022-07-29T09:59:29;11.45;;;2.10;;
72301;SDS011;60235;52.234;5.186;2022-07-29T10:01:55;6.65;;;1.77;;
72301;SDS011;60235;52.234;5.186;2022-07-29T10:04:22;9.82;;;2.25;;
72301;SDS011;60235;52.234;5.186;2022-07-29T10:06:58;7.60;;;1.80;;
72301;SDS011;60235;52.234;5.186;2022-07-29T10:09:24;7.55;;;1.95;;
72301;SDS011;60235;52.234;5.186;2022-07-29T10:14:32;5.30;;;1.73;;
72301;SDS011;60235;52.234;5.186;2022-07-29T10:17:02;8.65;;;2.30;;
72301;SDS011;60235;52.234;5.186;2022-07-29T10:19:29;6.13;;;1.83;;
72301;SDS011;60235;52.234;5.186;2022-07-29T10:21:58;6.38;;;1.92;;
72301;SDS011;60235;52.234;5.186;2022-07-29T10:24:25;7.10;;;2.10;;
72301;SDS011;60235;52.234;5.186;2022-07-29T10:26:52;8.70;;;1.83;;
72301;SDS011;60235;52.234;5.186;2022-07-29T10:29:19;7.95;;;2.00;;
72301;SDS011;60235;52.234;5.186;2022-07-29T10:42:48;10.02;;;1.90;;
72301;SDS011;60235;52.234;5.186;2022-07-29T10:45:15;11.93;;;1.98;;
72301;SDS011;60235;52.234;5.186;2022-07-29T10:47:42;8.88;;;1.90;;
72301;SDS011;60235;52.234;5.186;2022-07-29T10:50:08;8.32;;;1.73;;
72301;SDS011;60235;52.234;5.186;2022-07-29T10:55:36;16.20;;;3.03;;
72301;SDS011;60235;52.234;5.186;2022-07-29T10:58:20;6.75;;;1.80;;
72301;SDS011;60235;52.234;5.186;2022-07-29T11:00:49;7.82;;;1.83;;
72301;SDS011;60235;52.234;5.186;2022-07-29T11:06:00;6.93;;;1.95;;
72301;SDS011;60235;52.234;5.186;2022-07-29T11:08:26;7.45;;;2.00;;
72301;SDS011;60235;52.234;5.186;2022-07-29T11:11:30;6.32;;;1.75;;
72301;SDS011;60235;52.234;5.186;2022-07-29T11:16:07;7.57;;;2.03;;
72301;SDS011;60235;52.234;5.186;2022-07-29T11:18:33;6.43;;;1.85;;
72301;SDS011;60235;52.234;5.186;2022-07-29T11:20:59;8.70;;;1.95;;
72301;SDS011;60235;52.234;5.186;2022-07-29T11:23:26;10.57;;;1.92;;
72301;SDS011;60235;52.234;5.186;2022-07-29T11:29:04;6.63;;;1.83;;
72301;SDS011;60235;52.234;5.186;2022-07-29T11:34:23;7.75;;;2.00;;
72301;SDS011;60235;52.234;5.186;2022-07-29T11:37:33;6.38;;;2.05;;
72301;SDS011;60235;52.234;5.186;2022-07-29T11:39:37;6.38;;;2.05;;
72301;SDS011;60235;52.234;5.186;2022-07-29T11:47:27;6.18;;;2.10;;
72301;SDS011;60235;52.234;5.186;2022-07-29T11:49:55;6.53;;;1.83;;
72301;SDS011;60235;52.234;5.186;2022-07-29T11:52:22;8.13;;;2.17;;
72301;SDS011;60235;52.234;5.186;2022-07-29T11:54:48;10.95;;;2.00;;
72301;SDS011;60235;52.234;5.186;2022-07-29T11:57:18;8.50;;;2.20;;
72301;SDS011;60235;52.234;5.186;2022-07-29T11:59:45;7.38;;;2.00;;
72301;SDS011;60235;52.234;5.186;2022-07-29T12:02:12;8.50;;;2.28;;
72301;SDS011;60235;52.234;5.186;2022-07-29T12:04:47;8.27;;;2.15;;
72301;SDS011;60235;52.234;5.186;2022-07-29T12:07:14;7.45;;;1.90;;
72301;SDS011;60235;52.234;5.186;2022-07-29T12:09:41;11.15;;;2.22;;
72301;SDS011;60235;52.234;5.186;2022-07-29T12:12:15;6.45;;;2.08;;
72301;SDS011;60235;52.234;5.186;2022-07-29T12:14:42;9.95;;;2.55;;
72301;SDS011;60235;52.234;5.186;2022-07-29T12:17:24;6.97;;;1.80;;
72301;SDS011;60235;52.234;5.186;2022-07-29T12:22:28;4.82;;;1.63;;
72301;SDS011;60235;52.234;5.186;2022-07-29T12:24:55;6.47;;;2.10;;
72301;SDS011;60235;52.234;5.186;2022-07-29T12:27:21;6.57;;;2.40;;
72301;SDS011;60235;52.234;5.186;2022-07-29T12:29:55;8.40;;;1.67;;
72301;SDS011;60235;52.234;5.186;2022-07-29T12:32:21;7.60;;;1.80;;
72301;SDS011;60235;52.234;5.186;2022-07-29T12:34:48;9.48;;;2.15;;
72301;SDS011;60235;52.234;5.186;2022-07-29T12:37:14;7.10;;;1.83;;
72301;SDS011;60235;52.234;5.186;2022-07-29T12:39:40;8.07;;;2.00;;
72301;SDS011;60235;52.234;5.186;2022-07-29T12:42:10;6.22;;;1.70;;
72301;SDS011;60235;52.234;5.186;2022-07-29T12:45:10;5.55;;;1.83;;
72301;SDS011;60235;52.234;5.186;2022-07-29T12:47:29;8.48;;;2.00;;
72301;SDS011;60235;52.234;5.186;2022-07-29T12:50:11;4.88;;;1.48;;
72301;SDS011;60235;52.234;5.186;2022-07-29T12:52:39;8.30;;;1.58;;
72301;SDS011;60235;52.234;5.186;2022-07-29T12:55:05;7.03;;;1.80;;
72301;SDS011;60235;52.234;5.186;2022-07-29T12:57:31;8.73;;;1.90;;
72301;SDS011;60235;52.234;5.186;2022-07-29T13:00:10;6.53;;;2.15;;
72301;SDS011;60235;52.234;5.186;2022-07-29T13:02:38;7.55;;;1.80;;
72301;SDS011;60235;52.234;5.186;2022-07-29T13:05:04;7.57;;;2.03;;
72301;SDS011;60235;52.234;5.186;2022-07-29T13:07:31;5.75;;;1.90;;
72301;SDS011;60235;52.234;5.186;2022-07-29T13:10:13;5.72;;;1.58;;
72301;SDS011;60235;52.234;5.186;2022-07-29T13:13:01;5.68;;;1.40;;
72301;SDS011;60235;52.234;5.186;2022-07-29T13:15:25;5.72;;;1.80;;
72301;SDS011;60235;52.234;5.186;2022-07-29T13:17:52;5.57;;;1.83;;
72301;SDS011;60235;52.234;5.186;2022-07-29T13:20:18;6.72;;;1.75;;
72301;SDS011;60235;52.234;5.186;2022-07-29T13:22:47;5.00;;;1.60;;
72301;SDS011;60235;52.234;5.186;2022-07-29T13:25:13;6.15;;;1.70;;
72301;SDS011;60235;52.234;5.186;2022-07-29T13:27:39;8.10;;;1.67;;
72301;SDS011;60235;52.234;5.186;2022-07-29T13:30:07;9.15;;;1.83;;
72301;SDS011;60235;52.234;5.186;2022-07-29T13:32:33;8.90;;;1.90;;
72301;SDS011;60235;52.234;5.186;2022-07-29T13:35:05;7.05;;;1.88;;
72301;SDS011;60235;52.234;5.186;2022-07-29T13:37:32;6.43;;;1.63;;
72301;SDS011;60235;52.234;5.186;2022-07-29T13:39:59;6.68;;;1.60;;
72301;SDS011;60235;52.234;5.186;2022-07-29T13:42:27;4.82;;;1.52;;
72301;SDS011;60235;52.234;5.186;2022-07-29T13:44:53;6.60;;;1.70;;
72301;SDS011;60235;52.234;5.186;2022-07-29T13:47:20;8.38;;;1.70;;
72301;SDS011;60235;52.234;5.186;2022-07-29T13:49:46;7.03;;;1.75;;
72301;SDS011;60235;52.234;5.186;2022-07-29T13:52:13;8.88;;;1.92;;
72301;SDS011;60235;52.234;5.186;2022-07-29T13:54:39;6.45;;;1.67;;
72301;SDS011;60235;52.234;5.186;2022-07-29T13:57:05;5.68;;;1.77;;
72301;SDS011;60235;52.234;5.186;2022-07-29T13:59:31;10.80;;;2.00;;
72301;SDS011;60235;52.234;5.186;2022-07-29T14:01:57;8.75;;;2.10;;
72301;SDS011;60235;52.234;5.186;2022-07-29T14:04:23;6.35;;;1.80;;
72301;SDS011;60235;52.234;5.186;2022-07-29T14:06:49;9.02;;;2.10;;
72301;SDS011;60235;52.234;5.186;2022-07-29T14:09:15;10.07;;;1.98;;
72301;SDS011;60235;52.234;5.186;2022-07-29T14:11:42;4.93;;;1.50;;
72301;SDS011;60235;52.234;5.186;2022-07-29T14:14:08;6.43;;;1.88;;
72301;SDS011;60235;52.234;5.186;2022-07-29T14:16:35;6.22;;;1.63;;
72301;SDS011;60235;52.234;5.186;2022-07-29T14:19:01;7.05;;;1.70;;
72301;SDS011;60235;52.234;5.186;2022-07-29T14:21:27;6.22;;;1.70;;
72301;SDS011;60235;52.234;5.186;2022-07-29T14:23:54;5.40;;;1.70;;
72301;SDS011;60235;52.234;5.186;2022-07-29T14:26:20;6.45;;;1.83;;
72301;SDS011;60235;52.234;5.186;2022-07-29T14:28:47;8.68;;;1.70;;
72301;SDS011;60235;52.234;5.186;2022-07-29T14:31:13;6.88;;;1.50;;
72301;SDS011;60235;52.234;5.186;2022-07-29T14:33:39;6.18;;;1.70;;
72301;SDS011;60235;52.234;5.186;2022-07-29T14:36:05;6.43;;;1.70;;
72301;SDS011;60235;52.234;5.186;2022-07-29T14:38:31;6.68;;;1.73;;
72301;SDS011;60235;52.234;5.186;2022-07-29T14:40:57;5.82;;;1.77;;
72301;SDS011;60235;52.234;5.186;2022-07-29T14:43:23;10.43;;;1.98;;
72301;SDS011;60235;52.234;5.186;2022-07-29T14:45:49;7.97;;;1.70;;
72301;SDS011;60235;52.234;5.186;2022-07-29T14:48:15;6.93;;;1.60;;
72301;SDS011;60235;52.234;5.186;2022-07-29T14:50:41;7.45;;;1.70;;
72301;SDS011;60235;52.234;5.186;2022-07-29T14:53:07;7.32;;;1.70;;
72301;SDS011;60235;52.234;5.186;2022-07-29T14:55:33;6.15;;;1.80;;
72301;SDS011;60235;52.234;5.186;2022-07-29T14:57:59;6.63;;;1.90;;
72301;SDS011;60235;52.234;5.186;2022-07-29T15:00:25;8.23;;;1.80;;
72301;SDS011;60235;52.234;5.186;2022-07-29T15:02:51;6.63;;;1.80;;
72301;SDS011;60235;52.234;5.186;2022-07-29T15:05:17;8.02;;;2.08;;
72301;SDS011;60235;52.234;5.186;2022-07-29T15:07:43;5.82;;;1.48;;
72301;SDS011;60235;52.234;5.186;2022-07-29T15:10:09;8.75;;;1.80;;
72301;SDS011;60235;52.234;5.186;2022-07-29T15:12:35;8.10;;;1.60;;
72301;SDS011;60235;52.234;5.186;2022-07-29T15:15:01;7.97;;;1.80;;
72301;SDS011;60235;52.234;5.186;2022-07-29T15:17:27;10.32;;;2.20;;
72301;SDS011;60235;52.234;5.186;2022-07-29T15:19:53;7.00;;;1.90;;
72301;SDS011;60235;52.234;5.186;2022-07-29T15:22:19;8.57;;;2.17;;
72301;SDS011;60235;52.234;5.186;2022-07-29T15:24:45;7.57;;;1.90;;
72301;SDS011;60235;52.234;5.186;2022-07-29T15:27:11;5.90;;;1.80;;
72301;SDS011;60235;52.234;5.186;2022-07-29T15:29:39;6.35;;;2.00;;
72301;SDS011;60235;52.234;5.186;2022-07-29T15:32:06;9.13;;;1.90;;
72301;SDS011;60235;52.234;5.186;2022-07-29T15:34:32;5.82;;;1.73;;
72301;SDS011;60235;52.234;5.186;2022-07-29T15:36:59;7.93;;;2.08;;
72301;SDS011;60235;52.234;5.186;2022-07-29T15:39:25;6.05;;;2.00;;
72301;SDS011;60235;52.234;5.186;2022-07-29T15:41:51;6.90;;;1.85;;
72301;SDS011;60235;52.234;5.186;2022-07-29T15:44:17;8.43;;;2.00;;
72301;SDS011;60235;52.234;5.186;2022-07-29T15:46:44;4.65;;;1.65;;
72301;SDS011;60235;52.234;5.186;2022-07-29T15:49:34;7.72;;;1.90;;
72301;SDS011;60235;52.234;5.186;2022-07-29T15:52:02;10.70;;;4.70;;
72301;SDS011;60235;52.234;5.186;2022-07-29T15:54:30;11.77;;;5.40;;